sensor_id;sensor_type;location;lat;lon;timestamp;P1;durP1;ratioP1;P2;durP2;ratioP2
42084;SDS011;27746;52.228;20.890;2022-12-17T00:00:18;54.20;;;22.42;;
42084;SDS011;27746;52.228;20.890;2022-12-17T00:03:03;56.28;;;23.92;;
42084;SDS011;27746;52.228;20.890;2022-12-17T00:05:47;59.58;;;25.98;;
42084;SDS011;27746;52.228;20.890;2022-12-17T00:08:31;61.72;;;25.73;;
42084;SDS011;27746;52.228;20.890;2022-12-17T00:11:17;62.83;;;24.52;;
42084;SDS011;27746;52.228;20.890;2022-12-17T00:14:01;61.63;;;25.77;;
42084;SDS011;27746;52.228;20.890;2022-12-17T00:16:46;59.85;;;25.92;;
42084;SDS011;27746;52.228;20.890;2022-12-17T00:19:30;55.17;;;24.98;;
42084;SDS011;27746;52.228;20.890;2022-12-17T00:22:14;56.30;;;26.10;;
42084;SDS011;27746;52.228;20.890;2022-12-17T00:24:58;59.50;;;25.42;;
42084;SDS011;27746;52.228;20.890;2022-12-17T00:27:44;67.43;;;25.92;;
42084;SDS011;27746;52.228;20.890;2022-12-17T00:30:28;60.97;;;24.20;;
42084;SDS011;27746;52.228;20.890;2022-12-17T00:33:10;58.42;;;24.65;;
42084;SDS011;27746;52.228;20.890;2022-12-17T00:36:09;58.13;;;24.90;;
42084;SDS011;27746;52.228;20.890;2022-12-17T00:38:54;59.75;;;24.58;;
42084;SDS011;27746;52.228;20.890;2022-12-17T00:41:38;61.65;;;25.38;;
42084;SDS011;27746;52.228;20.890;2022-12-17T00:44:24;56.15;;;24.52;;
42084;SDS011;27746;52.228;20.890;2022-12-17T00:47:08;63.83;;;26.17;;
42084;SDS011;27746;52.228;20.890;2022-12-17T00:49:52;60.05;;;25.30;;
42084;SDS011;27746;52.228;20.890;2022-12-17T00:52:37;58.47;;;24.58;;
42084;SDS011;27746;52.228;20.890;2022-12-17T00:55:21;62.28;;;23.92;;
42084;SDS011;27746;52.228;20.890;2022-12-17T00:58:06;58.20;;;24.40;;
42084;SDS011;27746;52.228;20.890;2022-12-17T01:00:52;63.75;;;23.70;;
42084;SDS011;27746;52.228;20.890;2022-12-17T01:03:40;55.63;;;25.42;;
42084;SDS011;27746;52.228;20.890;2022-12-17T01:06:21;64.35;;;26.50;;
42084;SDS011;27746;52.228;20.890;2022-12-17T01:09:06;66.85;;;26.92;;
42084;SDS011;27746;52.228;20.890;2022-12-17T01:11:50;67.20;;;26.45;;
42084;SDS011;27746;52.228;20.890;2022-12-17T01:14:34;62.75;;;25.25;;
42084;SDS011;27746;52.228;20.890;2022-12-17T01:17:20;59.75;;;27.13;;
42084;SDS011;27746;52.228;20.890;2022-12-17T01:20:05;56.58;;;25.80;;
42084;SDS011;27746;52.228;20.890;2022-12-17T01:22:50;64.82;;;27.13;;
42084;SDS011;27746;52.228;20.890;2022-12-17T01:25:34;62.55;;;27.38;;
42084;SDS011;27746;52.228;20.890;2022-12-17T01:28:21;60.45;;;25.60;;
42084;SDS011;27746;52.228;20.890;2022-12-17T01:31:06;68.35;;;28.48;;
42084;SDS011;27746;52.228;20.890;2022-12-17T01:33:52;63.05;;;26.15;;
42084;SDS011;27746;52.228;20.890;2022-12-17T01:36:36;68.55;;;27.30;;
42084;SDS011;27746;52.228;20.890;2022-12-17T01:39:20;64.35;;;27.50;;
42084;SDS011;27746;52.228;20.890;2022-12-17T01:42:06;59.95;;;25.17;;
42084;SDS011;27746;52.228;20.890;2022-12-17T01:44:54;66.10;;;27.75;;
42084;SDS011;27746;52.228;20.890;2022-12-17T01:47:39;66.25;;;28.42;;
42084;SDS011;27746;52.228;20.890;2022-12-17T01:50:32;61.20;;;26.70;;
42084;SDS011;27746;52.228;20.890;2022-12-17T01:53:20;64.55;;;27.05;;
42084;SDS011;27746;52.228;20.890;2022-12-17T01:56:08;66.70;;;26.60;;
42084;SDS011;27746;52.228;20.890;2022-12-17T01:58:52;61.20;;;25.73;;
42084;SDS011;27746;52.228;20.890;2022-12-17T02:01:37;62.35;;;26.52;;
42084;SDS011;27746;52.228;20.890;2022-12-17T02:04:21;60.65;;;24.65;;
42084;SDS011;27746;52.228;20.890;2022-12-17T02:07:24;63.28;;;27.35;;
42084;SDS011;27746;52.228;20.890;2022-12-17T02:10:20;64.15;;;25.95;;
42084;SDS011;27746;52.228;20.890;2022-12-17T02:13:10;58.17;;;23.30;;
42084;SDS011;27746;52.228;20.890;2022-12-17T02:15:59;57.45;;;24.98;;
42084;SDS011;27746;52.228;20.890;2022-12-17T02:18:49;59.33;;;24.77;;
42084;SDS011;27746;52.228;20.890;2022-12-17T02:21:38;55.30;;;24.73;;
42084;SDS011;27746;52.228;20.890;2022-12-17T02:24:30;51.45;;;24.20;;
42084;SDS011;27746;52.228;20.890;2022-12-17T02:27:22;51.95;;;22.35;;
42084;SDS011;27746;52.228;20.890;2022-12-17T02:30:08;55.45;;;23.38;;
42084;SDS011;27746;52.228;20.890;2022-12-17T02:32:53;59.40;;;26.10;;
42084;SDS011;27746;52.228;20.890;2022-12-17T02:35:39;66.95;;;25.98;;
42084;SDS011;27746;52.228;20.890;2022-12-17T02:38:26;58.63;;;22.33;;
42084;SDS011;27746;52.228;20.890;2022-12-17T02:41:12;54.40;;;25.02;;
42084;SDS011;27746;52.228;20.890;2022-12-17T02:44:00;55.58;;;22.88;;
42084;SDS011;27746;52.228;20.890;2022-12-17T02:46:45;53.83;;;23.52;;
42084;SDS011;27746;52.228;20.890;2022-12-17T02:49:32;57.95;;;24.50;;
42084;SDS011;27746;52.228;20.890;2022-12-17T02:52:17;60.17;;;25.67;;
42084;SDS011;27746;52.228;20.890;2022-12-17T02:55:04;57.58;;;25.50;;
42084;SDS011;27746;52.228;20.890;2022-12-17T02:57:49;65.63;;;27.17;;
42084;SDS011;27746;52.228;20.890;2022-12-17T03:00:35;59.92;;;24.45;;
42084;SDS011;27746;52.228;20.890;2022-12-17T03:03:19;52.40;;;23.25;;
42084;SDS011;27746;52.228;20.890;2022-12-17T03:06:04;55.25;;;24.02;;
42084;SDS011;27746;52.228;20.890;2022-12-17T03:08:49;66.00;;;26.73;;
42084;SDS011;27746;52.228;20.890;2022-12-17T03:11:33;64.05;;;26.23;;
42084;SDS011;27746;52.228;20.890;2022-12-17T03:14:17;57.88;;;24.77;;
42084;SDS011;27746;52.228;20.890;2022-12-17T03:17:03;63.05;;;27.70;;
42084;SDS011;27746;52.228;20.890;2022-12-17T03:19:48;60.95;;;26.98;;
42084;SDS011;27746;52.228;20.890;2022-12-17T03:22:32;56.88;;;24.58;;
42084;SDS011;27746;52.228;20.890;2022-12-17T03:25:17;58.28;;;24.65;;
42084;SDS011;27746;52.228;20.890;2022-12-17T03:28:02;60.28;;;25.90;;
42084;SDS011;27746;52.228;20.890;2022-12-17T03:30:47;59.70;;;25.15;;
42084;SDS011;27746;52.228;20.890;2022-12-17T03:33:32;56.65;;;24.02;;
42084;SDS011;27746;52.228;20.890;2022-12-17T03:36:17;66.15;;;25.98;;
42084;SDS011;27746;52.228;20.890;2022-12-17T03:39:01;59.35;;;25.15;;
42084;SDS011;27746;52.228;20.890;2022-12-17T03:41:46;59.45;;;26.70;;
42084;SDS011;27746;52.228;20.890;2022-12-17T03:44:30;65.25;;;26.38;;
42084;SDS011;27746;52.228;20.890;2022-12-17T03:47:14;68.30;;;26.05;;
42084;SDS011;27746;52.228;20.890;2022-12-17T03:50:02;54.15;;;23.10;;
42084;SDS011;27746;52.228;20.890;2022-12-17T03:52:46;61.50;;;26.60;;
42084;SDS011;27746;52.228;20.890;2022-12-17T03:55:31;61.50;;;24.88;;
42084;SDS011;27746;52.228;20.890;2022-12-17T03:58:15;57.15;;;25.13;;
42084;SDS011;27746;52.228;20.890;2022-12-17T04:00:59;61.97;;;23.50;;
42084;SDS011;27746;52.228;20.890;2022-12-17T04:03:43;64.35;;;27.50;;
42084;SDS011;27746;52.228;20.890;2022-12-17T04:06:29;64.57;;;25.50;;
42084;SDS011;27746;52.228;20.890;2022-12-17T04:09:13;51.10;;;22.50;;
42084;SDS011;27746;52.228;20.890;2022-12-17T04:11:58;58.10;;;23.60;;
42084;SDS011;27746;52.228;20.890;2022-12-17T04:14:42;53.40;;;22.52;;
42084;SDS011;27746;52.228;20.890;2022-12-17T04:17:27;54.83;;;23.67;;
42084;SDS011;27746;52.228;20.890;2022-12-17T04:20:11;59.80;;;23.95;;
42084;SDS011;27746;52.228;20.890;2022-12-17T04:22:57;59.75;;;25.80;;
42084;SDS011;27746;52.228;20.890;2022-12-17T04:25:42;56.35;;;22.63;;
42084;SDS011;27746;52.228;20.890;2022-12-17T04:28:26;58.67;;;23.33;;
42084;SDS011;27746;52.228;20.890;2022-12-17T04:31:11;59.13;;;23.08;;
42084;SDS011;27746;52.228;20.890;2022-12-17T04:33:55;54.97;;;22.17;;
42084;SDS011;27746;52.228;20.890;2022-12-17T04:36:39;53.63;;;23.83;;
42084;SDS011;27746;52.228;20.890;2022-12-17T04:39:25;49.50;;;21.30;;
42084;SDS011;27746;52.228;20.890;2022-12-17T04:42:09;56.90;;;22.65;;
42084;SDS011;27746;52.228;20.890;2022-12-17T04:44:54;54.88;;;23.98;;
42084;SDS011;27746;52.228;20.890;2022-12-17T04:47:38;57.67;;;23.10;;
42084;SDS011;27746;52.228;20.890;2022-12-17T04:50:22;54.00;;;23.33;;
42084;SDS011;27746;52.228;20.890;2022-12-17T04:53:06;48.53;;;20.73;;
42084;SDS011;27746;52.228;20.890;2022-12-17T04:55:52;55.42;;;21.92;;
42084;SDS011;27746;52.228;20.890;2022-12-17T04:58:37;53.42;;;22.88;;
42084;SDS011;27746;52.228;20.890;2022-12-17T05:01:21;57.40;;;21.52;;
42084;SDS011;27746;52.228;20.890;2022-12-17T05:04:06;53.22;;;23.75;;
42084;SDS011;27746;52.228;20.890;2022-12-17T05:06:50;56.03;;;23.67;;
42084;SDS011;27746;52.228;20.890;2022-12-17T05:09:35;52.63;;;23.67;;
42084;SDS011;27746;52.228;20.890;2022-12-17T05:12:21;45.00;;;20.70;;
42084;SDS011;27746;52.228;20.890;2022-12-17T05:15:05;57.03;;;24.70;;
42084;SDS011;27746;52.228;20.890;2022-12-17T05:17:50;54.55;;;21.23;;
42084;SDS011;27746;52.228;20.890;2022-12-17T05:20:34;45.40;;;19.85;;
42084;SDS011;27746;52.228;20.890;2022-12-17T05:23:18;52.25;;;21.00;;
42084;SDS011;27746;52.228;20.890;2022-12-17T05:26:03;45.72;;;19.55;;
42084;SDS011;27746;52.228;20.890;2022-12-17T05:28:53;55.28;;;21.35;;
42084;SDS011;27746;52.228;20.890;2022-12-17T05:31:38;55.83;;;22.60;;
42084;SDS011;27746;52.228;20.890;2022-12-17T05:34:22;54.05;;;23.73;;
42084;SDS011;27746;52.228;20.890;2022-12-17T05:37:07;51.58;;;23.23;;
42084;SDS011;27746;52.228;20.890;2022-12-17T05:39:51;51.00;;;21.98;;
42084;SDS011;27746;52.228;20.890;2022-12-17T05:42:35;48.53;;;20.83;;
42084;SDS011;27746;52.228;20.890;2022-12-17T05:45:23;49.70;;;19.88;;
42084;SDS011;27746;52.228;20.890;2022-12-17T05:48:07;47.63;;;20.10;;
42084;SDS011;27746;52.228;20.890;2022-12-17T05:50:51;53.88;;;21.13;;
42084;SDS011;27746;52.228;20.890;2022-12-17T05:53:36;49.85;;;20.63;;
42084;SDS011;27746;52.228;20.890;2022-12-17T05:56:20;60.15;;;24.35;;
42084;SDS011;27746;52.228;20.890;2022-12-17T05:59:05;54.47;;;22.48;;
42084;SDS011;27746;52.228;20.890;2022-12-17T06:01:50;49.35;;;20.52;;
42084;SDS011;27746;52.228;20.890;2022-12-17T06:04:35;51.92;;;20.88;;
42084;SDS011;27746;52.228;20.890;2022-12-17T06:07:19;48.05;;;20.30;;
42084;SDS011;27746;52.228;20.890;2022-12-17T06:10:12;54.60;;;19.58;;
42084;SDS011;27746;52.228;20.890;2022-12-17T06:12:56;45.53;;;20.00;;
42084;SDS011;27746;52.228;20.890;2022-12-17T06:15:40;44.97;;;19.70;;
42084;SDS011;27746;52.228;20.890;2022-12-17T06:18:26;49.40;;;21.67;;
42084;SDS011;27746;52.228;20.890;2022-12-17T06:21:10;52.40;;;20.15;;
42084;SDS011;27746;52.228;20.890;2022-12-17T06:23:55;48.10;;;19.60;;
42084;SDS011;27746;52.228;20.890;2022-12-17T06:26:39;59.30;;;21.55;;
42084;SDS011;27746;52.228;20.890;2022-12-17T06:29:23;47.67;;;20.38;;
42084;SDS011;27746;52.228;20.890;2022-12-17T06:32:07;56.38;;;22.52;;
42084;SDS011;27746;52.228;20.890;2022-12-17T06:34:53;49.15;;;21.85;;
42084;SDS011;27746;52.228;20.890;2022-12-17T06:37:37;48.45;;;20.73;;
42084;SDS011;27746;52.228;20.890;2022-12-17T06:40:18;52.40;;;22.60;;
42084;SDS011;27746;52.228;20.890;2022-12-17T06:43:02;56.63;;;22.45;;
42084;SDS011;27746;52.228;20.890;2022-12-17T06:45:47;54.67;;;22.65;;
42084;SDS011;27746;52.228;20.890;2022-12-17T06:48:31;54.33;;;23.15;;
42084;SDS011;27746;52.228;20.890;2022-12-17T06:51:16;55.10;;;22.60;;
42084;SDS011;27746;52.228;20.890;2022-12-17T06:54:01;51.17;;;22.77;;
42084;SDS011;27746;52.228;20.890;2022-12-17T06:56:42;51.63;;;20.35;;
42084;SDS011;27746;52.228;20.890;2022-12-17T06:59:26;47.22;;;19.08;;
42084;SDS011;27746;52.228;20.890;2022-12-17T07:02:11;51.83;;;22.05;;
42084;SDS011;27746;52.228;20.890;2022-12-17T07:04:55;49.00;;;22.13;;
42084;SDS011;27746;52.228;20.890;2022-12-17T07:07:41;51.72;;;20.85;;
42084;SDS011;27746;52.228;20.890;2022-12-17T07:10:25;50.78;;;20.92;;
42084;SDS011;27746;52.228;20.890;2022-12-17T07:13:09;45.08;;;19.02;;
42084;SDS011;27746;52.228;20.890;2022-12-17T07:15:53;48.92;;;20.63;;
42084;SDS011;27746;52.228;20.890;2022-12-17T07:18:38;47.35;;;20.30;;
42084;SDS011;27746;52.228;20.890;2022-12-17T07:21:29;51.95;;;21.50;;
42084;SDS011;27746;52.228;20.890;2022-12-17T07:24:15;45.53;;;18.70;;
42084;SDS011;27746;52.228;20.890;2022-12-17T07:27:00;54.67;;;20.52;;
42084;SDS011;27746;52.228;20.890;2022-12-17T07:29:49;46.03;;;18.85;;
42084;SDS011;27746;52.228;20.890;2022-12-17T07:32:34;49.20;;;19.75;;
42084;SDS011;27746;52.228;20.890;2022-12-17T07:35:18;48.35;;;21.00;;
42084;SDS011;27746;52.228;20.890;2022-12-17T07:38:03;43.85;;;19.52;;
42084;SDS011;27746;52.228;20.890;2022-12-17T07:40:50;47.35;;;18.10;;
42084;SDS011;27746;52.228;20.890;2022-12-17T07:43:35;45.13;;;19.48;;
42084;SDS011;27746;52.228;20.890;2022-12-17T07:46:19;48.88;;;21.08;;
42084;SDS011;27746;52.228;20.890;2022-12-17T07:49:04;50.17;;;19.52;;
42084;SDS011;27746;52.228;20.890;2022-12-17T07:52:02;44.92;;;19.10;;
42084;SDS011;27746;52.228;20.890;2022-12-17T07:54:54;44.15;;;19.20;;
42084;SDS011;27746;52.228;20.890;2022-12-17T07:57:40;46.53;;;20.40;;
42084;SDS011;27746;52.228;20.890;2022-12-17T08:00:24;53.22;;;20.25;;
42084;SDS011;27746;52.228;20.890;2022-12-17T08:03:09;47.55;;;18.60;;
42084;SDS011;27746;52.228;20.890;2022-12-17T08:05:55;53.75;;;22.13;;
42084;SDS011;27746;52.228;20.890;2022-12-17T08:08:51;50.88;;;20.67;;
42084;SDS011;27746;52.228;20.890;2022-12-17T08:11:36;46.33;;;20.27;;
42084;SDS011;27746;52.228;20.890;2022-12-17T08:14:22;44.38;;;18.30;;
42084;SDS011;27746;52.228;20.890;2022-12-17T08:17:02;50.22;;;21.45;;
42084;SDS011;27746;52.228;20.890;2022-12-17T08:19:55;46.53;;;20.48;;
42084;SDS011;27746;52.228;20.890;2022-12-17T08:22:39;47.47;;;19.27;;
42084;SDS011;27746;52.228;20.890;2022-12-17T08:25:23;48.40;;;19.92;;
42084;SDS011;27746;52.228;20.890;2022-12-17T08:28:08;44.97;;;18.88;;
42084;SDS011;27746;52.228;20.890;2022-12-17T08:30:54;43.20;;;17.60;;
42084;SDS011;27746;52.228;20.890;2022-12-17T08:33:39;43.10;;;19.27;;
42084;SDS011;27746;52.228;20.890;2022-12-17T08:36:23;46.30;;;19.80;;
42084;SDS011;27746;52.228;20.890;2022-12-17T08:39:08;42.90;;;18.52;;
42084;SDS011;27746;52.228;20.890;2022-12-17T08:41:53;40.50;;;18.58;;
42084;SDS011;27746;52.228;20.890;2022-12-17T08:44:37;48.33;;;20.05;;
42084;SDS011;27746;52.228;20.890;2022-12-17T08:47:23;45.10;;;20.48;;
42084;SDS011;27746;52.228;20.890;2022-12-17T08:50:07;46.00;;;19.42;;
42084;SDS011;27746;52.228;20.890;2022-12-17T08:52:56;50.80;;;22.35;;
42084;SDS011;27746;52.228;20.890;2022-12-17T08:55:41;45.60;;;21.63;;
42084;SDS011;27746;52.228;20.890;2022-12-17T08:58:25;41.05;;;18.25;;
42084;SDS011;27746;52.228;20.890;2022-12-17T09:01:10;43.90;;;20.33;;
42084;SDS011;27746;52.228;20.890;2022-12-17T09:03:55;50.20;;;20.67;;
42084;SDS011;27746;52.228;20.890;2022-12-17T09:06:45;47.63;;;18.55;;
42084;SDS011;27746;52.228;20.890;2022-12-17T09:09:31;48.78;;;20.02;;
42084;SDS011;27746;52.228;20.890;2022-12-17T09:12:15;44.75;;;18.80;;
42084;SDS011;27746;52.228;20.890;2022-12-17T09:15:02;47.90;;;19.58;;
42084;SDS011;27746;52.228;20.890;2022-12-17T09:17:49;47.30;;;20.40;;
42084;SDS011;27746;52.228;20.890;2022-12-17T09:20:35;45.38;;;19.65;;
42084;SDS011;27746;52.228;20.890;2022-12-17T09:23:28;63.70;;;24.35;;
42084;SDS011;27746;52.228;20.890;2022-12-17T09:26:12;49.38;;;21.50;;
42084;SDS011;27746;52.228;20.890;2022-12-17T09:28:56;51.88;;;22.10;;
42084;SDS011;27746;52.228;20.890;2022-12-17T09:31:41;47.40;;;22.65;;
42084;SDS011;27746;52.228;20.890;2022-12-17T09:34:27;47.60;;;20.38;;
42084;SDS011;27746;52.228;20.890;2022-12-17T09:37:13;46.88;;;19.90;;
42084;SDS011;27746;52.228;20.890;2022-12-17T09:39:57;56.08;;;19.80;;
42084;SDS011;27746;52.228;20.890;2022-12-17T09:42:57;49.63;;;20.63;;
42084;SDS011;27746;52.228;20.890;2022-12-17T09:45:49;54.38;;;22.52;;
42084;SDS011;27746;52.228;20.890;2022-12-17T09:48:41;55.65;;;22.38;;
42084;SDS011;27746;52.228;20.890;2022-12-17T09:51:32;57.67;;;23.25;;
42084;SDS011;27746;52.228;20.890;2022-12-17T09:54:21;54.47;;;22.38;;
42084;SDS011;27746;52.228;20.890;2022-12-17T09:57:12;52.63;;;24.52;;
42084;SDS011;27746;52.228;20.890;2022-12-17T09:59:59;56.80;;;23.55;;
42084;SDS011;27746;52.228;20.890;2022-12-17T10:02:45;58.88;;;24.15;;
42084;SDS011;27746;52.228;20.890;2022-12-17T10:05:30;53.97;;;20.27;;
42084;SDS011;27746;52.228;20.890;2022-12-17T10:08:16;56.00;;;23.30;;
42084;SDS011;27746;52.228;20.890;2022-12-17T10:11:10;57.50;;;24.58;;
42084;SDS011;27746;52.228;20.890;2022-12-17T10:14:10;55.65;;;22.95;;
42084;SDS011;27746;52.228;20.890;2022-12-17T10:16:57;49.17;;;19.98;;
42084;SDS011;27746;52.228;20.890;2022-12-17T10:19:41;59.58;;;22.88;;
42084;SDS011;27746;52.228;20.890;2022-12-17T10:22:26;48.83;;;21.38;;
42084;SDS011;27746;52.228;20.890;2022-12-17T10:25:13;47.95;;;20.20;;
42084;SDS011;27746;52.228;20.890;2022-12-17T10:28:01;52.92;;;21.58;;
42084;SDS011;27746;52.228;20.890;2022-12-17T10:31:06;50.60;;;20.50;;
42084;SDS011;27746;52.228;20.890;2022-12-17T10:34:00;47.28;;;20.60;;
42084;SDS011;27746;52.228;20.890;2022-12-17T10:36:49;49.55;;;20.85;;
42084;SDS011;27746;52.228;20.890;2022-12-17T10:39:35;48.08;;;19.67;;
42084;SDS011;27746;52.228;20.890;2022-12-17T10:42:21;48.05;;;20.70;;
42084;SDS011;27746;52.228;20.890;2022-12-17T10:45:22;50.33;;;20.48;;
42084;SDS011;27746;52.228;20.890;2022-12-17T10:48:18;47.88;;;20.55;;
42084;SDS011;27746;52.228;20.890;2022-12-17T10:51:05;50.10;;;21.63;;
42084;SDS011;27746;52.228;20.890;2022-12-17T10:54:03;48.08;;;21.70;;
42084;SDS011;27746;52.228;20.890;2022-12-17T10:56:53;51.28;;;21.63;;
42084;SDS011;27746;52.228;20.890;2022-12-17T10:59:41;51.53;;;21.88;;
42084;SDS011;27746;52.228;20.890;2022-12-17T11:02:27;57.50;;;21.95;;
42084;SDS011;27746;52.228;20.890;2022-12-17T11:05:24;49.85;;;21.52;;
42084;SDS011;27746;52.228;20.890;2022-12-17T11:08:11;47.67;;;21.35;;
42084;SDS011;27746;52.228;20.890;2022-12-17T11:10:58;48.97;;;20.25;;
42084;SDS011;27746;52.228;20.890;2022-12-17T11:13:49;53.08;;;23.05;;
42084;SDS011;27746;52.228;20.890;2022-12-17T11:16:41;52.50;;;22.98;;
42084;SDS011;27746;52.228;20.890;2022-12-17T11:19:33;49.10;;;20.70;;
42084;SDS011;27746;52.228;20.890;2022-12-17T11:25:23;48.78;;;20.23;;
42084;SDS011;27746;52.228;20.890;2022-12-17T11:28:18;49.42;;;19.77;;
42084;SDS011;27746;52.228;20.890;2022-12-17T11:31:09;47.20;;;20.33;;
42084;SDS011;27746;52.228;20.890;2022-12-17T11:34:10;51.40;;;20.92;;
42084;SDS011;27746;52.228;20.890;2022-12-17T11:37:04;53.33;;;21.48;;
42084;SDS011;27746;52.228;20.890;2022-12-17T11:39:56;55.55;;;20.83;;
42084;SDS011;27746;52.228;20.890;2022-12-17T11:42:47;47.95;;;20.88;;
42084;SDS011;27746;52.228;20.890;2022-12-17T11:48:43;48.80;;;20.88;;
42084;SDS011;27746;52.228;20.890;2022-12-17T11:51:36;45.75;;;20.35;;
42084;SDS011;27746;52.228;20.890;2022-12-17T11:54:30;40.05;;;19.20;;
42084;SDS011;27746;52.228;20.890;2022-12-17T11:57:19;50.17;;;20.65;;
42084;SDS011;27746;52.228;20.890;2022-12-17T12:00:12;50.97;;;19.33;;
42084;SDS011;27746;52.228;20.890;2022-12-17T12:03:02;40.50;;;17.27;;
42084;SDS011;27746;52.228;20.890;2022-12-17T12:05:56;40.50;;;19.88;;
42084;SDS011;27746;52.228;20.890;2022-12-17T12:08:43;44.90;;;19.80;;
42084;SDS011;27746;52.228;20.890;2022-12-17T12:11:42;43.00;;;20.42;;
42084;SDS011;27746;52.228;20.890;2022-12-17T12:14:40;47.50;;;18.80;;
42084;SDS011;27746;52.228;20.890;2022-12-17T12:17:36;42.13;;;18.90;;
42084;SDS011;27746;52.228;20.890;2022-12-17T12:20:29;46.15;;;18.60;;
42084;SDS011;27746;52.228;20.890;2022-12-17T12:23:28;49.58;;;19.52;;
42084;SDS011;27746;52.228;20.890;2022-12-17T12:26:21;44.45;;;19.33;;
42084;SDS011;27746;52.228;20.890;2022-12-17T12:29:10;46.95;;;20.45;;
42084;SDS011;27746;52.228;20.890;2022-12-17T12:32:23;48.53;;;22.00;;
42084;SDS011;27746;52.228;20.890;2022-12-17T12:35:15;44.08;;;18.73;;
42084;SDS011;27746;52.228;20.890;2022-12-17T12:38:05;45.45;;;18.42;;
42084;SDS011;27746;52.228;20.890;2022-12-17T12:40:53;48.20;;;18.98;;
42084;SDS011;27746;52.228;20.890;2022-12-17T12:43:45;40.08;;;17.42;;
42084;SDS011;27746;52.228;20.890;2022-12-17T12:46:37;46.50;;;19.10;;
42084;SDS011;27746;52.228;20.890;2022-12-17T12:49:31;53.72;;;21.58;;
42084;SDS011;27746;52.228;20.890;2022-12-17T12:52:21;55.70;;;24.38;;
42084;SDS011;27746;52.228;20.890;2022-12-17T12:55:07;50.92;;;19.88;;
42084;SDS011;27746;52.228;20.890;2022-12-17T12:57:56;49.78;;;21.95;;
42084;SDS011;27746;52.228;20.890;2022-12-17T13:00:50;49.97;;;21.65;;
42084;SDS011;27746;52.228;20.890;2022-12-17T13:03:48;53.40;;;22.92;;
42084;SDS011;27746;52.228;20.890;2022-12-17T13:06:40;51.47;;;20.73;;
42084;SDS011;27746;52.228;20.890;2022-12-17T13:09:29;49.67;;;22.50;;
42084;SDS011;27746;52.228;20.890;2022-12-17T13:14:47;50.25;;;21.48;;
42084;SDS011;27746;52.228;20.890;2022-12-17T13:17:21;51.00;;;22.58;;
42084;SDS011;27746;52.228;20.890;2022-12-17T13:20:02;54.20;;;22.83;;
42084;SDS011;27746;52.228;20.890;2022-12-17T13:22:48;55.70;;;22.13;;
42084;SDS011;27746;52.228;20.890;2022-12-17T13:25:17;51.58;;;21.55;;
42084;SDS011;27746;52.228;20.890;2022-12-17T13:27:45;47.65;;;20.73;;
42084;SDS011;27746;52.228;20.890;2022-12-17T13:30:21;47.47;;;20.15;;
42084;SDS011;27746;52.228;20.890;2022-12-17T13:32:59;54.33;;;23.20;;
42084;SDS011;27746;52.228;20.890;2022-12-17T13:35:46;50.97;;;21.40;;
42084;SDS011;27746;52.228;20.890;2022-12-17T13:38:23;54.20;;;22.02;;
42084;SDS011;27746;52.228;20.890;2022-12-17T13:41:01;51.00;;;20.35;;
42084;SDS011;27746;52.228;20.890;2022-12-17T13:43:32;48.90;;;19.98;;
42084;SDS011;27746;52.228;20.890;2022-12-17T13:46:05;45.03;;;20.08;;
42084;SDS011;27746;52.228;20.890;2022-12-17T13:48:31;42.70;;;19.77;;
42084;SDS011;27746;52.228;20.890;2022-12-17T13:51:00;47.30;;;19.52;;
42084;SDS011;27746;52.228;20.890;2022-12-17T13:53:29;45.67;;;20.17;;
42084;SDS011;27746;52.228;20.890;2022-12-17T13:56:01;50.67;;;21.48;;
42084;SDS011;27746;52.228;20.890;2022-12-17T13:58:39;43.17;;;19.23;;
42084;SDS011;27746;52.228;20.890;2022-12-17T14:01:11;49.33;;;19.85;;
42084;SDS011;27746;52.228;20.890;2022-12-17T14:03:41;45.83;;;19.60;;
42084;SDS011;27746;52.228;20.890;2022-12-17T14:06:24;38.75;;;19.88;;
42084;SDS011;27746;52.228;20.890;2022-12-17T14:08:58;44.15;;;17.50;;
42084;SDS011;27746;52.228;20.890;2022-12-17T14:11:26;45.22;;;20.70;;
42084;SDS011;27746;52.228;20.890;2022-12-17T14:14:20;48.22;;;19.20;;
42084;SDS011;27746;52.228;20.890;2022-12-17T14:16:53;43.53;;;17.60;;
42084;SDS011;27746;52.228;20.890;2022-12-17T14:19:21;47.30;;;19.42;;
42084;SDS011;27746;52.228;20.890;2022-12-17T14:21:50;49.10;;;19.48;;
42084;SDS011;27746;52.228;20.890;2022-12-17T14:24:23;44.92;;;18.17;;
42084;SDS011;27746;52.228;20.890;2022-12-17T14:27:04;45.00;;;20.42;;
42084;SDS011;27746;52.228;20.890;2022-12-17T14:29:47;40.70;;;18.43;;
42084;SDS011;27746;52.228;20.890;2022-12-17T14:32:21;48.75;;;19.98;;
42084;SDS011;27746;52.228;20.890;2022-12-17T14:37:21;42.33;;;17.33;;
42084;SDS011;27746;52.228;20.890;2022-12-17T14:39:51;56.15;;;21.25;;
42084;SDS011;27746;52.228;20.890;2022-12-17T14:42:33;48.53;;;20.83;;
42084;SDS011;27746;52.228;20.890;2022-12-17T14:45:04;51.33;;;20.88;;
42084;SDS011;27746;52.228;20.890;2022-12-17T14:47:33;48.53;;;19.90;;
42084;SDS011;27746;52.228;20.890;2022-12-17T14:50:03;57.92;;;21.40;;
42084;SDS011;27746;52.228;20.890;2022-12-17T14:52:34;50.45;;;20.17;;
42084;SDS011;27746;52.228;20.890;2022-12-17T14:58:20;48.53;;;20.40;;
42084;SDS011;27746;52.228;20.890;2022-12-17T15:00:49;52.38;;;22.63;;
42084;SDS011;27746;52.228;20.890;2022-12-17T15:03:22;52.80;;;20.55;;
42084;SDS011;27746;52.228;20.890;2022-12-17T15:05:52;50.13;;;21.67;;
42084;SDS011;27746;52.228;20.890;2022-12-17T15:08:23;50.38;;;21.73;;
42084;SDS011;27746;52.228;20.890;2022-12-17T15:10:50;58.22;;;21.45;;
42084;SDS011;27746;52.228;20.890;2022-12-17T15:13:17;56.15;;;23.00;;
42084;SDS011;27746;52.228;20.890;2022-12-17T15:15:44;57.08;;;22.85;;
42084;SDS011;27746;52.228;20.890;2022-12-17T15:18:11;65.40;;;23.27;;
42084;SDS011;27746;52.228;20.890;2022-12-17T15:20:38;56.03;;;21.67;;
42084;SDS011;27746;52.228;20.890;2022-12-17T15:23:07;60.00;;;24.75;;
42084;SDS011;27746;52.228;20.890;2022-12-17T15:25:40;56.38;;;22.85;;
42084;SDS011;27746;52.228;20.890;2022-12-17T15:28:07;65.43;;;23.45;;
42084;SDS011;27746;52.228;20.890;2022-12-17T15:30:34;57.35;;;25.15;;
42084;SDS011;27746;52.228;20.890;2022-12-17T15:33:01;52.92;;;23.10;;
42084;SDS011;27746;52.228;20.890;2022-12-17T15:35:28;60.00;;;21.42;;
42084;SDS011;27746;52.228;20.890;2022-12-17T15:37:56;57.63;;;23.30;;
42084;SDS011;27746;52.228;20.890;2022-12-17T15:40:22;55.95;;;23.33;;
42084;SDS011;27746;52.228;20.890;2022-12-17T15:42:51;63.63;;;25.08;;
42084;SDS011;27746;52.228;20.890;2022-12-17T15:45:35;55.10;;;23.65;;
42084;SDS011;27746;52.228;20.890;2022-12-17T15:48:02;61.42;;;22.80;;
42084;SDS011;27746;52.228;20.890;2022-12-17T15:50:29;57.78;;;24.15;;
42084;SDS011;27746;52.228;20.890;2022-12-17T15:52:57;63.70;;;25.83;;
42084;SDS011;27746;52.228;20.890;2022-12-17T15:55:26;66.22;;;26.58;;
42084;SDS011;27746;52.228;20.890;2022-12-17T15:57:55;54.55;;;23.10;;
42084;SDS011;27746;52.228;20.890;2022-12-17T16:00:21;62.38;;;24.73;;